Brundall, United Kingdom
Current Conditions -  °F | °C
As of 7:20 PM on Thursday 18 Dec 2014 (Local Time) from EGSH Reporting Station
Broken Clouds Broken Clouds  
Wind Chill: 55°   Ceiling: 2300
Heat Index: 55°   Visibility: 6mi
Dew Point: 50°   Wind: 24mph
Humidity: 82%   Direction: 230°SW
Pressure: 29.68"   Gusts: 38mph
Location:  52.62°N, 1.44°E
Report Text: EGSH 181920Z 23021G33KT 9999 SCT018 BKN023 13/10 Q1005 NOSIG
Loading
Personal Weather Stations






























Interactive Weather Map New forecast layout! Learn more

10-Day Weather Forecast

Advertisements
Track Severe Weather on mobile